Time;durP1;ratioP1;P1;durP2;ratioP2;P2;SDS_P1;SDS_P2;PMS_P1;PMS_P2;Temp;Humidity;BMP_temperature;BMP_pressure;BME280_temperature;BME280_humidity;BME280_pressure;Samples;Min_cycle;Max_cycle;Signal;HPM_P1;HPM_P2
2021/12/25 00:01:52;;;;;;;;;;;;;;;8.81;58.62;98774.81;4283819;33;19997;-81
2021/12/25 00:04:21;;;;;;;;;;;;;;;8.84;58.35;98776.56;4279309;33;20004;-81
2021/12/25 00:06:47;;;;;;;;;;;;;;;8.85;58.25;98779.13;4286042;33;19981;-80
2021/12/25 00:09:14;;;;;;;;;;;;;;;8.80;58.39;98778.22;4287133;33;19984;-81
2021/12/25 00:11:41;;;;;;;;;;;;;;;8.74;58.46;98767.91;4281697;33;20007;-80
2021/12/25 00:14:11;;;;;;;;;;;;;;;8.76;58.71;98771.31;4272923;33;20044;-80
2021/12/25 00:16:43;;;;;;;;;;;;;;;8.89;57.81;98777.41;4281875;33;20009;-78
2021/12/25 00:19:09;;;;;;;;;;;;;;;8.90;57.51;98778.28;4282724;33;20029;-80
2021/12/25 00:21:36;;;;;;;;;;;;;;;8.66;58.56;98779.88;4272852;33;20799;-80
2021/12/25 00:24:03;;;;;;;;;;;;;;;8.73;58.76;98783.34;4259215;33;20011;-80
2021/12/25 00:26:48;;;;;;;;;;;;;;;8.58;59.13;98777.25;4292414;33;20390;-81
2021/12/25 00:34:38;;;;;;;;;;;;;;;8.65;59.95;98790.16;4291196;33;20096;-80
2021/12/25 00:37:05;;;;;;;;;;;;;;;8.72;59.92;98779.91;4288097;33;20388;-80
2021/12/25 00:39:32;;;;;;;;;;;;;;;8.89;59.07;98797.22;4255850;33;20025;-80
2021/12/25 00:42:00;;;;;;;;;;;;;;;8.70;59.36;98797.09;4288960;33;20007;-79
2021/12/25 00:44:28;;;;;;;;;;;;;;;8.79;59.17;98785.97;4302222;33;20529;-79
2021/12/25 00:46:55;;;;;;;;;;;;;;;8.91;59.34;98785.19;4287888;33;20096;-80
2021/12/25 00:49:22;;;;;;;;;;;;;;;8.81;59.56;98790.28;4276064;33;20405;-81
2021/12/25 00:51:49;;;;;;;;;;;;;;;8.75;59.34;98790.25;4277532;33;20405;-80
2021/12/25 00:54:16;;;;;;;;;;;;;;;8.83;59.16;98793.72;4291656;33;20043;-78
2021/12/25 00:56:43;;;;;;;;;;;;;;;8.78;59.30;98787.69;4280394;33;20047;-79
2021/12/25 00:59:10;;;;;;;;;;;;;;;8.94;58.34;98790.38;4287629;33;20006;-79
2021/12/25 01:01:37;;;;;;;;;;;;;;;8.92;58.45;98802.38;4270974;33;20015;-80
2021/12/25 01:04:05;;;;;;;;;;;;;;;8.81;58.71;98795.44;4293120;33;20048;-79
2021/12/25 01:06:31;;;;;;;;;;;;;;;8.73;59.13;98797.09;4285930;33;19988;-80
2021/12/25 01:08:58;;;;;;;;;;;;;;;8.95;59.25;98802.41;4280896;33;19992;-80
2021/12/25 01:11:28;;;;;;;;;;;;;;;8.95;59.03;98802.41;4286167;33;20440;-80
2021/12/25 01:14:24;;;;;;;;;;;;;;;8.93;58.82;98810.13;4294244;33;19996;-80
2021/12/25 01:22:11;;;;;;;;;;;;;;;9.02;58.18;98814.50;4285851;33;19989;-79
2021/12/25 01:29:59;;;;;;;;;;;;;;;8.99;59.04;98819.63;4282615;33;19995;-80
2021/12/25 01:35:55;;;;;;;;;;;;;;;8.94;59.22;98821.34;4256653;33;19977;-79
2021/12/25 01:38:27;;;;;;;;;;;;;;;9.02;59.09;98832.56;4283792;33;20133;-80
2021/12/25 01:49:09;;;;;;;;;;;;;;;9.04;59.26;98823.12;4272404;33;19993;-79
2021/12/25 01:51:36;;;;;;;;;;;;;;;9.07;59.14;98833.47;4276398;33;20085;-80
2021/12/25 01:54:03;;;;;;;;;;;;;;;9.13;59.12;98837.81;4278998;33;20252;-79
2021/12/25 01:56:30;;;;;;;;;;;;;;;9.16;58.84;98833.50;4275466;33;19993;-80
2021/12/25 01:58:57;;;;;;;;;;;;;;;9.16;58.88;98835.25;4282884;33;19993;-80
2021/12/25 02:01:23;;;;;;;;;;;;;;;9.12;58.99;98842.06;4270438;33;20003;-80
2021/12/25 02:03:50;;;;;;;;;;;;;;;9.18;58.57;98839.53;4293348;33;20386;-81
2021/12/25 02:06:17;;;;;;;;;;;;;;;9.15;59.13;98826.59;4303481;33;20451;-80
2021/12/25 02:08:44;;;;;;;;;;;;;;;9.07;59.50;98826.56;4281794;33;19992;-80
2021/12/25 02:11:12;;;;;;;;;;;;;;;9.12;59.50;98825.72;4300016;33;20039;-80
2021/12/25 02:13:40;;;;;;;;;;;;;;;9.24;58.98;98826.66;4281036;33;20720;-81
2021/12/25 02:16:13;;;;;;;;;;;;;;;8.92;60.17;98818.72;4256964;33;19993;-80
2021/12/25 02:21:19;;;;;;;;;;;;;;;9.16;58.80;98835.25;4290892;33;20019;-80
2021/12/25 02:23:48;;;;;;;;;;;;;;;9.26;58.90;98824.94;4285864;33;20469;-79
2021/12/25 02:26:17;;;;;;;;;;;;;;;9.17;59.41;98822.31;4292680;33;19997;-80
2021/12/25 02:28:44;;;;;;;;;;;;;;;9.29;58.68;98819.81;4280594;33;19995;-80
2021/12/25 02:31:12;;;;;;;;;;;;;;;9.15;59.21;98821.44;4271944;33;19993;-80
2021/12/25 02:33:39;;;;;;;;;;;;;;;9.17;59.57;98818.88;4287936;33;19988;-79
2021/12/25 02:36:06;;;;;;;;;;;;;;;9.07;59.57;98812.81;4274293;33;20007;-80
2021/12/25 02:38:34;;;;;;;;;;;;;;;9.20;59.34;98813.72;4270084;33;19993;-80
2021/12/25 02:41:02;;;;;;;;;;;;;;;9.19;59.45;98807.72;4277590;33;19981;-79
2021/12/25 02:43:29;;;;;;;;;;;;;;;9.25;59.34;98815.50;4278626;33;20019;-79
2021/12/25 02:45:56;;;;;;;;;;;;;;;9.32;58.72;98809.50;4286490;33;19996;-80
2021/12/25 02:48:23;;;;;;;;;;;;;;;9.11;59.01;98814.53;4264661;33;20351;-79
2021/12/25 02:50:50;;;;;;;;;;;;;;;9.23;59.01;98814.59;4225781;33;20324;-78
2021/12/25 02:53:17;;;;;;;;;;;;;;;9.30;58.52;98806.03;4242027;33;20048;-79
2021/12/25 02:55:45;;;;;;;;;;;;;;;9.15;58.84;98811.13;4246416;33;20432;-79
2021/12/25 02:58:12;;;;;;;;;;;;;;;9.09;59.01;98811.06;4249686;33;19993;-79
2021/12/25 03:00:45;;;;;;;;;;;;;;;9.28;57.82;98809.44;4247981;33;20008;-79
2021/12/25 03:03:13;;;;;;;;;;;;;;;9.08;58.05;98809.34;4244760;33;20001;-80
2021/12/25 03:05:40;;;;;;;;;;;;;;;8.95;58.70;98807.56;4257876;33;19986;-80
2021/12/25 03:08:07;;;;;;;;;;;;;;;9.03;58.41;98800.72;4245246;33;20019;-80
2021/12/25 03:10:37;;;;;;;;;;;;;;;8.99;58.63;98804.16;4251860;33;19984;-79
2021/12/25 03:13:57;;;;;;;;;;;;;;;8.57;59.70;98800.44;4254279;33;19997;-79
2021/12/25 03:15:54;;;;;;;;;;;;;;;8.82;58.26;98806.63;4244621;33;20001;-80
2021/12/25 03:18:25;;;;;;;;;;;;;;;8.99;58.03;98805.00;4268618;33;20086;-79
2021/12/25 03:20:55;;;;;;;;;;;;;;;9.01;57.86;98803.31;4292031;33;20029;-79
2021/12/25 03:23:22;;;;;;;;;;;;;;;8.92;57.31;98805.81;4225159;33;19993;-79
2021/12/25 03:25:50;;;;;;;;;;;;;;;8.97;57.64;98811.03;4285063;33;20008;-79
2021/12/25 03:28:18;;;;;;;;;;;;;;;8.48;58.74;98810.69;4290328;33;20012;-80
2021/12/25 03:30:45;;;;;;;;;;;;;;;8.72;58.04;98813.44;4283056;33;20027;-79
2021/12/25 03:33:12;;;;;;;;;;;;;;;8.64;58.28;98812.53;4276144;33;20632;-80
2021/12/25 03:35:39;;;;;;;;;;;;;;;8.59;58.78;98809.06;4289359;33;20372;-79
2021/12/25 03:38:07;;;;;;;;;;;;;;;8.54;58.89;98815.88;4275775;33;20011;-79
2021/12/25 03:40:34;;;;;;;;;;;;;;;8.27;59.94;98825.09;4299196;33;19991;-79
2021/12/25 03:43:01;;;;;;;;;;;;;;;8.46;58.61;98827.87;4276867;33;20098;-81
2021/12/25 03:45:31;;;;;;;;;;;;;;;8.54;58.44;98831.38;4288663;33;20053;-80
2021/12/25 03:57:37;;;;;;;;;;;;;;;8.67;57.40;98843.50;4270655;33;20075;-80
2021/12/25 03:59:12;;;;;;;;;;;;;;;8.45;57.61;98857.06;4265333;33;20005;-80
2021/12/25 04:04:14;;;;;;;;;;;;;;;8.55;57.38;98853.72;4251949;33;20055;-80
2021/12/25 04:06:50;;;;;;;;;;;;;;;8.38;58.31;98857.00;4256694;33;19994;-80
2021/12/25 04:09:25;;;;;;;;;;;;;;;8.49;58.60;98864.00;4254476;33;19982;-80
2021/12/25 04:11:53;;;;;;;;;;;;;;;8.54;58.25;98867.47;4252283;33;20027;-80
2021/12/25 04:14:21;;;;;;;;;;;;;;;8.53;58.22;98873.50;4265408;33;20009;-80
2021/12/25 04:16:49;;;;;;;;;;;;;;;8.56;58.41;98871.81;4253617;33;20048;-81
2021/12/25 04:19:16;;;;;;;;;;;;;;;8.66;58.44;98867.56;4260480;33;20004;-80
2021/12/25 04:24:41;;;;;;;;;;;;;;;8.70;58.18;98871.03;4265138;33;19986;-81
2021/12/25 04:27:13;;;;;;;;;;;;;;;8.68;57.76;98876.22;4266939;33;20269;-79
2021/12/25 04:29:46;;;;;;;;;;;;;;;8.59;58.33;98865.81;4282103;33;19993;-80
2021/12/25 05:05:22;;;;;;;;;;;;;;;8.63;58.38;98843.47;4278356;33;20395;-78
2021/12/25 05:07:49;;;;;;;;;;;;;;;8.77;57.79;98845.28;4289979;33;20000;-80
2021/12/25 05:10:15;;;;;;;;;;;;;;;8.77;57.17;98845.28;4282768;33;20843;-80
2021/12/25 05:12:43;;;;;;;;;;;;;;;8.67;57.95;98847.81;4262117;33;20804;-81
2021/12/25 05:15:10;;;;;;;;;;;;;;;8.53;58.15;98845.13;4269232;33;19995;-80
2021/12/25 05:17:37;;;;;;;;;;;;;;;8.64;57.82;98838.31;4258431;33;19993;-80
2021/12/25 05:20:05;;;;;;;;;;;;;;;8.50;57.72;98845.09;4257862;33;19989;-80
2021/12/25 05:22:32;;;;;;;;;;;;;;;8.66;57.44;98849.53;4265416;33;19988;-80
2021/12/25 05:24:58;;;;;;;;;;;;;;;8.51;56.75;98846.81;4267420;33;19984;-81
2021/12/25 05:27:26;;;;;;;;;;;;;;;8.51;56.70;98854.56;4282840;33;19989;-81
2021/12/25 05:29:53;;;;;;;;;;;;;;;8.45;56.45;98865.66;4286817;33;20483;-80
2021/12/25 05:32:21;;;;;;;;;;;;;;;8.47;56.37;98865.69;4265584;33;20034;-81
2021/12/25 05:34:48;;;;;;;;;;;;;;;8.43;56.21;98863.97;4266426;33;20064;-80
2021/12/25 05:37:15;;;;;;;;;;;;;;;8.25;56.32;98865.47;4259139;33;19989;-80
2021/12/25 05:39:49;;;;;;;;;;;;;;;8.28;56.51;98855.19;4261767;33;20020;-81
2021/12/25 05:42:18;;;;;;;;;;;;;;;8.23;57.09;98856.88;4266261;33;20339;-80
2021/12/25 05:44:45;;;;;;;;;;;;;;;8.31;56.81;98862.94;4262531;33;19978;-81
2021/12/25 05:47:14;;;;;;;;;;;;;;;8.26;56.58;98864.59;4267918;33;20017;-80
2021/12/25 05:49:41;;;;;;;;;;;;;;;8.22;56.91;98860.28;4263434;33;20036;-79
2021/12/25 05:52:08;;;;;;;;;;;;;;;8.31;56.03;98865.53;4263493;33;20005;-81
2021/12/25 05:54:36;;;;;;;;;;;;;;;8.26;56.53;98861.16;4270420;33;20012;-80
2021/12/25 05:57:06;;;;;;;;;;;;;;;8.22;56.37;98864.56;4243817;33;20339;-80
2021/12/25 05:59:33;;;;;;;;;;;;;;;8.15;56.19;98874.81;4278357;33;20370;-79
2021/12/25 06:02:02;;;;;;;;;;;;;;;8.13;56.13;98865.34;4267228;33;19996;-80
2021/12/25 06:04:30;;;;;;;;;;;;;;;8.03;56.58;98866.09;4274918;33;19996;-80
2021/12/25 06:06:56;;;;;;;;;;;;;;;8.08;56.11;98862.72;4269926;33;20005;-80
2021/12/25 06:09:23;;;;;;;;;;;;;;;8.13;55.92;98867.91;4263219;33;19990;-79
2021/12/25 06:11:50;;;;;;;;;;;;;;;8.15;55.09;98868.81;4264859;33;20011;-79
2021/12/25 06:14:19;;;;;;;;;;;;;;;8.05;55.94;98882.44;4257480;33;20026;-78
2021/12/25 06:16:48;;;;;;;;;;;;;;;7.82;56.37;98885.63;4264603;33;20295;-78
2021/12/25 06:19:17;;;;;;;;;;;;;;;7.84;56.85;98880.50;4267943;33;20003;-78
2021/12/25 06:21:47;;;;;;;;;;;;;;;7.91;56.75;98874.56;4269501;33;20028;-78
2021/12/25 06:24:15;;;;;;;;;;;;;;;7.93;56.65;98889.19;4272432;33;20184;-76
2021/12/25 06:26:43;;;;;;;;;;;;;;;7.85;56.29;98890.81;4264695;33;20001;-77
2021/12/25 06:29:10;;;;;;;;;;;;;;;7.87;56.46;98889.13;4260756;33;20004;-78
2021/12/25 06:31:37;;;;;;;;;;;;;;;7.65;57.54;98892.28;4274507;33;20386;-78
2021/12/25 06:34:06;;;;;;;;;;;;;;;7.76;56.96;98901.03;4277997;33;19992;-78
2021/12/25 06:36:33;;;;;;;;;;;;;;;7.69;56.73;98914.69;4273339;33;20127;-79
2021/12/25 06:39:00;;;;;;;;;;;;;;;7.84;56.06;98917.41;4266280;33;19993;-77
2021/12/25 06:41:28;;;;;;;;;;;;;;;7.79;56.17;98908.78;4269268;33;20060;-77
2021/12/25 06:43:55;;;;;;;;;;;;;;;7.82;56.96;98907.97;4257844;33;20009;-78
2021/12/25 06:46:23;;;;;;;;;;;;;;;7.72;56.95;98912.09;4271707;33;20046;-76
2021/12/25 06:48:50;;;;;;;;;;;;;;;7.95;56.51;98921.84;4261626;33;19993;-77
2021/12/25 06:51:18;;;;;;;;;;;;;;;7.87;57.07;98925.19;4260429;33;20019;-77
2021/12/25 06:53:47;;;;;;;;;;;;;;;7.93;57.16;98924.41;4265846;33;20008;-75
2021/12/25 06:56:16;;;;;;;;;;;;;;;7.87;57.08;98920.03;4277959;33;20009;-76
2021/12/25 06:58:43;;;;;;;;;;;;;;;7.80;57.25;98928.53;4262028;33;19997;-76
2021/12/25 07:01:10;;;;;;;;;;;;;;;7.82;57.10;98929.44;4263404;33;20381;-76
2021/12/25 07:03:37;;;;;;;;;;;;;;;7.64;57.73;98934.34;4269296;33;20008;-76
2021/12/25 07:06:14;;;;;;;;;;;;;;;7.63;57.82;98935.19;4259956;33;20000;-75
2021/12/25 07:08:41;;;;;;;;;;;;;;;7.73;57.70;98933.59;4263969;33;20052;-77
2021/12/25 07:11:10;;;;;;;;;;;;;;;7.83;57.02;98932.88;4269176;33;20068;-76
2021/12/25 07:13:36;;;;;;;;;;;;;;;7.89;57.01;98943.25;4267403;33;19977;-76
2021/12/25 07:16:04;;;;;;;;;;;;;;;7.93;57.17;98945.00;4273122;33;19985;-75
2021/12/25 07:18:33;;;;;;;;;;;;;;;7.92;57.17;98949.31;4259791;33;20028;-76
2021/12/25 07:21:00;;;;;;;;;;;;;;;7.85;57.39;98952.66;4265717;33;20670;-81
2021/12/25 07:23:27;;;;;;;;;;;;;;;7.72;57.73;98945.59;4263499;33;20489;-79
2021/12/25 07:25:54;;;;;;;;;;;;;;;7.80;57.95;98951.72;4276906;33;20001;-79
2021/12/25 07:28:21;;;;;;;;;;;;;;;7.84;57.98;98953.50;4259760;33;20958;-79
2021/12/25 07:30:50;;;;;;;;;;;;;;;7.74;58.67;98946.50;4261215;33;19988;-86
2021/12/25 07:33:17;;;;;;;;;;;;;;;7.72;59.04;98948.16;4269499;33;19981;-85
2021/12/25 07:35:44;;;;;;;;;;;;;;;7.86;58.55;98946.66;4246666;33;20001;-83
2021/12/25 07:38:11;;;;;;;;;;;;;;;7.96;58.81;98959.66;4268419;33;19993;-81
2021/12/25 07:40:39;;;;;;;;;;;;;;;7.97;59.32;98957.09;4272785;33;19981;-83
2021/12/25 07:43:06;;;;;;;;;;;;;;;8.04;59.37;98961.50;4270051;33;19997;-79
2021/12/25 07:45:36;;;;;;;;;;;;;;;8.20;59.06;98965.09;4254527;33;19985;-84
2021/12/25 07:48:03;;;;;;;;;;;;;;;8.13;59.38;98958.13;4264414;33;19992;-83
2021/12/25 07:50:32;;;;;;;;;;;;;;;8.11;59.79;98965.00;4261464;33;20037;-84
2021/12/25 07:53:00;;;;;;;;;;;;;;;8.13;59.88;98963.28;4270290;33;19998;-82
2021/12/25 07:55:31;;;;;;;;;;;;;;;8.19;59.78;98967.66;4115458;33;5001789;-84
2021/12/25 07:58:03;;;;;;;;;;;;;;;8.33;59.26;98966.97;4264855;33;20053;-84
2021/12/25 08:00:30;;;;;;;;;;;;;;;8.38;59.20;98970.47;4273018;33;20260;-83
2021/12/25 08:02:57;;;;;;;;;;;;;;;8.41;59.28;98959.34;4265828;33;19985;-87
2021/12/25 08:05:24;;;;;;;;;;;;;;;8.42;59.35;98955.91;4260539;33;20253;-80
2021/12/25 08:07:50;;;;;;;;;;;;;;;8.34;60.17;98963.53;4264885;33;20299;-82
2021/12/25 08:10:19;;;;;;;;;;;;;;;8.41;60.11;98955.91;4265134;33;20033;-82
2021/12/25 08:12:50;;;;;;;;;;;;;;;8.62;59.63;98953.53;4267651;33;19984;-83
2021/12/25 08:15:19;;;;;;;;;;;;;;;8.67;59.82;98962.16;4268250;33;20348;-82
2021/12/25 08:17:46;;;;;;;;;;;;;;;8.70;59.84;98967.34;4270037;33;19985;-82
2021/12/25 08:20:22;;;;;;;;;;;;;;;8.65;60.33;98957.84;4269985;33;20937;-81
2021/12/25 08:23:02;;;;;;;;;;;;;;;8.68;60.72;98966.50;4267524;33;19995;-81
2021/12/25 08:25:33;;;;;;;;;;;;;;;8.79;60.54;98962.28;4261601;33;20016;-80
2021/12/25 08:28:02;;;;;;;;;;;;;;;8.74;60.98;98961.41;4269847;33;20007;-79
2021/12/25 08:30:33;;;;;;;;;;;;;;;8.84;60.76;98970.94;4264214;33;19989;-77
2021/12/25 08:33:03;;;;;;;;;;;;;;;8.96;60.37;98959.84;4259289;33;19989;-82
2021/12/25 08:35:34;;;;;;;;;;;;;;;9.04;60.42;98963.38;4266894;33;19996;-80
2021/12/25 08:38:01;;;;;;;;;;;;;;;9.13;60.26;98952.25;4270090;33;20002;-83
2021/12/25 08:40:28;;;;;;;;;;;;;;;8.97;61.00;98945.25;4265885;33;20080;-80
2021/12/25 08:43:01;;;;;;;;;;;;;;;9.03;61.17;98940.09;4264645;33;19989;-82
2021/12/25 08:48:13;;;;;;;;;;;;;;;9.39;60.52;98928.31;4260653;33;20000;-80
2021/12/25 08:50:40;;;;;;;;;;;;;;;9.51;60.11;98934.44;4258131;33;19981;-80
2021/12/25 08:53:08;;;;;;;;;;;;;;;9.46;60.57;98930.94;4266688;33;19985;-83
2021/12/25 08:55:35;;;;;;;;;;;;;;;9.53;60.61;98930.12;4277358;33;19985;-81
2021/12/25 08:58:01;;;;;;;;;;;;;;;9.50;61.13;98921.47;4270754;33;20045;-81
2021/12/25 09:00:28;;;;;;;;;;;;;;;9.69;60.85;98912.97;4263667;33;20064;-82
2021/12/25 09:02:55;;;;;;;;;;;;;;;9.82;60.80;98913.03;4262495;33;20551;-84
2021/12/25 09:05:24;;;;;;;;;;;;;;;9.90;60.67;98921.69;4270183;33;20041;-86
2021/12/25 09:07:52;;;;;;;;;;;;;;;9.95;60.69;98940.66;4256961;33;20055;-87
2021/12/25 09:10:18;;;;;;;;;;;;;;;9.99;60.87;98943.28;4252648;33;20003;-86
2021/12/25 09:12:45;;;;;;;;;;;;;;;10.08;60.76;98952.75;4256460;33;20034;-87
2021/12/25 09:15:13;;;;;;;;;;;;;;;9.91;61.34;98944.09;4264253;33;20456;-85
2021/12/25 09:17:40;;;;;;;;;;;;;;;10.12;60.93;98941.59;4263580;33;20026;-84
2021/12/25 09:20:07;;;;;;;;;;;;;;;9.88;61.95;98933.72;4259838;33;19981;-88
2021/12/25 09:22:34;;;;;;;;;;;;;;;10.12;61.51;98927.81;4257808;33;19992;-85
2021/12/25 09:25:01;;;;;;;;;;;;;;;10.32;61.01;98926.16;4253999;33;20049;-83
2021/12/25 09:27:27;;;;;;;;;;;;;;;10.28;61.00;98918.41;4257298;33;19997;-85
2021/12/25 09:29:54;;;;;;;;;;;;;;;10.41;60.94;98915.81;4272218;33;20036;-85
2021/12/25 09:32:21;;;;;;;;;;;;;;;10.51;61.01;98910.66;4262125;33;20045;-85
2021/12/25 09:34:48;;;;;;;;;;;;;;;10.63;60.76;98921.91;4265375;33;20053;-85
2021/12/25 09:37:15;;;;;;;;;;;;;;;10.71;60.64;98920.16;4277657;33;20040;-87
2021/12/25 09:39:42;;;;;;;;;;;;;;;10.83;60.77;98918.47;4266626;33;19993;-86
2021/12/25 09:42:09;;;;;;;;;;;;;;;10.88;61.04;98911.53;4260267;33;19986;-85
2021/12/25 09:44:36;;;;;;;;;;;;;;;10.97;61.38;98905.50;4248743;33;20292;-86
2021/12/25 09:47:03;;;;;;;;;;;;;;;11.04;59.99;98907.22;4260357;33;20038;-82
2021/12/25 09:49:30;;;;;;;;;;;;;;;11.22;59.65;98916.69;4269234;33;20013;-84
2021/12/25 09:51:57;;;;;;;;;;;;;;;11.21;60.08;98908.06;4252484;33;19985;-84
2021/12/25 09:54:26;;;;;;;;;;;;;;;11.44;59.41;98905.44;4263618;33;20001;-83
2021/12/25 09:56:56;;;;;;;;;;;;;;;11.46;59.21;98905.44;4263136;33;20267;-83
2021/12/25 09:59:23;;;;;;;;;;;;;;;11.38;59.34;98897.66;4264604;33;20389;-82
2021/12/25 10:01:50;;;;;;;;;;;;;;;11.35;59.64;98908.03;4263734;33;20674;-82
2021/12/25 10:04:37;;;;;;;;;;;;;;;11.51;59.68;98899.34;4261893;33;20011;-82
2021/12/25 10:07:17;;;;;;;;;;;;;;;11.56;59.58;98897.63;4263867;33;19988;-82
2021/12/25 10:09:52;;;;;;;;;;;;;;;11.67;59.98;98899.31;4238902;33;20072;-82
2021/12/25 10:12:19;;;;;;;;;;;;;;;11.67;59.96;98907.94;4251922;33;20381;-82
2021/12/25 10:14:53;;;;;;;;;;;;;;;11.86;59.46;98898.41;4252089;33;20008;-82
2021/12/25 10:17:22;;;;;;;;;;;;;;;12.05;59.34;98900.03;4254472;33;20431;-82
2021/12/25 10:19:58;;;;;;;;;;;;;;;12.14;58.48;98895.69;4262288;33;19999;-82
2021/12/25 10:22:25;;;;;;;;;;;;;;;12.26;58.45;98896.47;4263035;33;19997;-82
2021/12/25 10:25:07;;;;;;;;;;;;;;;12.47;58.06;98898.06;4257722;33;20928;-82
2021/12/25 10:27:34;;;;;;;;;;;;;;;12.67;57.61;98897.06;4249072;33;20007;-82
2021/12/25 10:30:03;;;;;;;;;;;;;;;12.62;57.69;98893.66;4249612;33;20005;-82
2021/12/25 10:32:36;;;;;;;;;;;;;;;12.83;57.06;98893.47;4271294;33;20063;-82
2021/12/25 10:35:11;;;;;;;;;;;;;;;12.95;56.25;98893.34;4263619;33;19989;-82
2021/12/25 10:37:41;;;;;;;;;;;;;;;13.12;54.58;98894.97;4262313;33;20407;-82
2021/12/25 10:40:25;;;;;;;;;;;;;;;13.12;54.89;98892.38;4264517;33;19981;-82
2021/12/25 10:42:56;;;;;;;;;;;;;;;12.95;55.66;98888.16;4271029;33;20729;-82
2021/12/25 10:45:26;;;;;;;;;;;;;;;13.12;54.84;98876.78;4268543;33;20905;-83
2021/12/25 10:48:01;;;;;;;;;;;;;;;13.29;55.65;98872.28;4260399;33;20089;-82
2021/12/25 10:50:28;;;;;;;;;;;;;;;13.41;55.03;98872.16;4254451;33;20347;-82
2021/12/25 10:52:55;;;;;;;;;;;;;;;13.44;55.36;98872.13;4264487;33;19985;-82
2021/12/25 10:55:23;;;;;;;;;;;;;;;13.62;54.69;98864.97;4264987;33;19998;-82
2021/12/25 10:57:52;;;;;;;;;;;;;;;13.58;55.59;98863.31;4255129;33;19989;-82
2021/12/25 11:00:21;;;;;;;;;;;;;;;13.43;56.85;98865.22;4259417;33;20388;-82
2021/12/25 11:02:50;;;;;;;;;;;;;;;13.76;55.47;98857.87;4245944;33;19985;-82
2021/12/25 11:05:17;;;;;;;;;;;;;;;13.85;54.52;98857.78;4257001;33;19989;-82
2021/12/25 11:07:44;;;;;;;;;;;;;;;13.93;54.15;98855.91;4242600;33;20471;-82
2021/12/25 11:10:14;;;;;;;;;;;;;;;13.84;54.89;98848.22;4270210;33;20036;-82
2021/12/25 11:12:41;;;;;;;;;;;;;;;14.11;55.10;98843.53;4270583;33;19996;-82
2021/12/25 11:15:10;;;;;;;;;;;;;;;14.28;53.94;98844.16;4265247;33;20046;-82
2021/12/25 11:17:38;;;;;;;;;;;;;;;14.29;53.42;98838.03;4261828;33;20001;-82
2021/12/25 11:20:05;;;;;;;;;;;;;;;14.16;54.47;98837.38;4254860;33;20458;-82
2021/12/25 11:22:52;;;;;;;;;;;;;;;14.43;52.94;98833.50;4254266;33;20365;-82
2021/12/25 11:25:21;;;;;;;;;;;;;;;14.22;53.82;98836.41;4257297;33;19989;-82
2021/12/25 11:27:48;;;;;;;;;;;;;;;14.40;53.29;98824.88;4249997;33;20363;-82
2021/12/25 11:30:18;;;;;;;;;;;;;;;14.43;53.74;98820.47;4263534;33;21074;-82
2021/12/25 11:32:45;;;;;;;;;;;;;;;14.55;54.09;98813.38;4253548;33;20368;-82
2021/12/25 11:35:13;;;;;;;;;;;;;;;14.42;53.93;98808.34;4258442;33;19990;-82
2021/12/25 11:37:39;;;;;;;;;;;;;;;14.50;54.52;98809.97;4257753;33;19993;-82
2021/12/25 11:40:08;;;;;;;;;;;;;;;14.66;54.02;98806.25;4257306;33;20363;-82
2021/12/25 11:42:39;;;;;;;;;;;;;;;14.92;53.43;98802.34;4257830;33;20437;-82
2021/12/25 11:45:12;;;;;;;;;;;;;;;15.00;52.23;98801.31;4263334;33;20001;-82
2021/12/25 11:47:41;;;;;;;;;;;;;;;14.87;52.27;98794.63;4255313;33;20303;-85
2021/12/25 11:50:12;;;;;;;;;;;;;;;15.04;51.92;98792.53;4270582;33;19993;-83
2021/12/25 11:52:51;;;;;;;;;;;;;;;14.93;51.63;98785.78;4252969;33;20394;-84
2021/12/25 11:55:29;;;;;;;;;;;;;;;14.79;51.97;98786.91;4257479;33;20967;-84
2021/12/25 12:00:39;;;;;;;;;;;;;;;15.01;51.43;98783.94;4261652;33;20395;-82
2021/12/25 12:03:31;;;;;;;;;;;;;;;14.56;53.38;98771.69;4263107;33;20426;-82
2021/12/25 12:05:58;;;;;;;;;;;;;;;14.13;54.90;98774.09;4276549;33;19997;-83
2021/12/25 12:08:27;;;;;;;;;;;;;;;14.55;53.10;98776.91;4115331;33;5087056;-83
2021/12/25 12:10:59;;;;;;;;;;;;;;;14.70;52.40;98781.87;4264969;33;20007;-83
2021/12/25 12:13:33;;;;;;;;;;;;;;;14.94;52.06;98785.78;4259310;33;19992;-83
2021/12/25 12:16:03;;;;;;;;;;;;;;;15.16;51.15;98781.03;4257556;33;19995;-83
2021/12/25 12:18:34;;;;;;;;;;;;;;;15.09;51.23;98779.41;4249902;33;20018;-83
2021/12/25 12:21:15;;;;;;;;;;;;;;;14.95;51.71;98791.84;4255204;33;20001;-84
2021/12/25 12:26:35;;;;;;;;;;;;;;;14.85;51.46;98781.59;4258838;33;19990;-83
2021/12/25 12:29:02;;;;;;;;;;;;;;;14.99;51.26;98772.66;4259788;33;20368;-83
2021/12/25 12:31:35;;;;;;;;;;;;;;;14.99;50.75;98783.09;4258529;33;19992;-83
2021/12/25 12:34:22;;;;;;;;;;;;;;;15.03;50.97;98779.56;4256269;33;19982;-83
2021/12/25 12:36:49;;;;;;;;;;;;;;;14.82;51.79;98786.84;4260614;33;20008;-82
2021/12/25 12:39:18;;;;;;;;;;;;;;;15.06;51.64;98776.84;4257366;33;19986;-82
2021/12/25 12:41:52;;;;;;;;;;;;;;;14.88;52.50;98781.53;4260342;33;19989;-82
2021/12/25 12:44:30;;;;;;;;;;;;;;;14.97;52.17;98780.53;4243586;33;20017;-83
2021/12/25 12:46:59;;;;;;;;;;;;;;;14.88;52.62;98786.75;4272849;33;19993;-82
2021/12/25 12:49:26;;;;;;;;;;;;;;;14.95;52.43;98781.44;4269691;33;20052;-82
2021/12/25 12:52:12;;;;;;;;;;;;;;;14.95;52.49;98784.03;4256186;33;19993;-83
2021/12/25 12:54:46;;;;;;;;;;;;;;;14.86;52.56;98787.66;4250447;33;19996;-81
2021/12/25 12:57:17;;;;;;;;;;;;;;;14.93;52.84;98788.41;4257739;33;19989;-82
2021/12/25 12:59:46;;;;;;;;;;;;;;;14.95;52.73;98787.50;4257311;33;20103;-84
2021/12/25 13:02:13;;;;;;;;;;;;;;;14.95;52.71;98781.44;4262519;33;20096;-83
2021/12/25 13:04:44;;;;;;;;;;;;;;;14.96;52.57;98789.19;4265241;33;19998;-82
2021/12/25 13:07:12;;;;;;;;;;;;;;;14.96;52.26;98789.19;4258462;33;20009;-82
2021/12/25 13:09:44;;;;;;;;;;;;;;;14.96;52.18;98799.63;4251428;33;20001;-82
2021/12/25 13:12:24;;;;;;;;;;;;;;;14.84;52.35;98790.31;4257446;33;19990;-82
2021/12/25 13:14:58;;;;;;;;;;;;;;;14.98;52.17;98781.37;4264761;33;20324;-82
2021/12/25 13:17:25;;;;;;;;;;;;;;;15.04;52.23;98766.47;4264553;33;20643;-81
2021/12/25 13:19:52;;;;;;;;;;;;;;;14.82;53.10;98760.81;4262578;33;20033;-81
2021/12/25 13:22:19;;;;;;;;;;;;;;;15.08;52.43;98757.69;4257775;33;20399;-81
2021/12/25 13:24:52;;;;;;;;;;;;;;;14.99;52.72;98760.47;4260308;33;19994;-81
2021/12/25 13:27:20;;;;;;;;;;;;;;;14.91;53.13;98764.16;4255231;33;20046;-81
2021/12/25 13:29:47;;;;;;;;;;;;;;;15.03;52.63;98763.91;4259013;33;20029;-82
2021/12/25 13:32:22;;;;;;;;;;;;;;;14.89;53.13;98775.44;4250978;33;19997;-82
2021/12/25 13:34:49;;;;;;;;;;;;;;;15.01;52.99;98760.47;4267965;33;19989;-81
2021/12/25 13:37:17;;;;;;;;;;;;;;;14.84;53.36;98764.25;4264113;33;19993;-82
2021/12/25 13:39:44;;;;;;;;;;;;;;;14.64;53.68;98772.44;4269447;33;20033;-82
2021/12/25 13:42:12;;;;;;;;;;;;;;;14.72;53.51;98768.81;4269904;33;19989;-80
2021/12/25 13:44:42;;;;;;;;;;;;;;;14.54;53.79;98767.41;4263895;33;20001;-81
2021/12/25 13:47:22;;;;;;;;;;;;;;;14.60;53.69;98775.97;4264724;33;20035;-82
2021/12/25 13:49:51;;;;;;;;;;;;;;;14.46;54.10;98769.25;4270317;33;19996;-82
2021/12/25 13:52:21;;;;;;;;;;;;;;;14.55;53.90;98771.72;4266492;33;20762;-82
2021/12/25 13:54:47;;;;;;;;;;;;;;;14.64;53.68;98762.03;4262040;33;19984;-82
2021/12/25 13:57:15;;;;;;;;;;;;;;;14.58;54.02;98762.12;4282451;33;20010;-82
2021/12/25 13:59:41;;;;;;;;;;;;;;;14.40;54.39;98760.66;4284766;33;20040;-82
2021/12/25 14:02:10;;;;;;;;;;;;;;;14.34;54.56;98768.56;4276052;33;19980;-82
2021/12/25 14:04:44;;;;;;;;;;;;;;;14.31;54.60;98773.81;4274932;33;20065;-82
2021/12/25 14:07:13;;;;;;;;;;;;;;;14.31;54.54;98773.81;3978525;33;10002576;-82
2021/12/25 14:09:51;;;;;;;;;;;;;;;14.34;54.32;98778.12;4276879;33;19988;-82
2021/12/25 14:12:19;;;;;;;;;;;;;;;14.26;54.43;98780.81;4273331;33;19999;-82
2021/12/25 14:14:46;;;;;;;;;;;;;;;14.36;53.96;98785.03;4241409;33;20003;-81
2021/12/25 14:17:13;;;;;;;;;;;;;;;14.32;54.12;98785.94;4239647;33;20022;-81
2021/12/25 14:19:40;;;;;;;;;;;;;;;14.36;53.89;98782.41;4249584;33;19985;-81
2021/12/25 14:22:07;;;;;;;;;;;;;;;14.35;53.91;98780.69;4258048;33;19981;-82
2021/12/25 14:24:41;;;;;;;;;;;;;;;14.27;53.85;98792.97;4248919;33;20020;-82
2021/12/25 14:27:10;;;;;;;;;;;;;;;14.16;54.05;98794.88;4250623;33;20419;-82
2021/12/25 14:29:37;;;;;;;;;;;;;;;14.13;54.16;98789.72;4263828;33;20046;-82